createdAt,value
2023-04-15T00:01:23.974Z,68.07
2023-04-15T00:03:55.848Z,68.02
2023-04-15T00:06:26.466Z,67.99
2023-04-15T00:08:57.241Z,67.98
2023-04-15T00:11:27.686Z,67.91
2023-04-15T00:13:58.702Z,67.87
2023-04-15T00:16:29.451Z,67.90
2023-04-15T00:19:00.114Z,67.76
2023-04-15T00:21:31.013Z,67.68
2023-04-15T00:24:01.996Z,67.70
2023-04-15T00:26:32.641Z,67.68
2023-04-15T00:29:03.527Z,67.84
2023-04-15T00:31:34.083Z,67.57
2023-04-15T00:34:04.791Z,67.54
2023-04-15T00:36:35.831Z,67.56
2023-04-15T00:39:06.376Z,67.56
2023-04-15T00:41:39.282Z,67.40
2023-04-15T00:44:10.571Z,67.41
2023-04-15T00:46:42.710Z,67.34
2023-04-15T00:49:13.238Z,67.24
2023-04-15T00:51:43.725Z,67.17
2023-04-15T00:54:14.760Z,67.10
2023-04-15T00:56:45.227Z,67.08
2023-04-15T00:59:17.766Z,67.09
2023-04-15T01:01:49.196Z,66.96
2023-04-15T01:04:20.239Z,66.93
2023-04-15T01:06:51.456Z,66.82
2023-04-15T01:09:22.342Z,66.90
2023-04-15T01:11:54.854Z,66.86
2023-04-15T01:14:26.667Z,66.82
2023-04-15T01:16:57.620Z,66.88
2023-04-15T01:19:28.643Z,66.69
2023-04-15T01:21:59.225Z,66.59
2023-04-15T01:24:31.675Z,66.62
2023-04-15T01:27:02.505Z,66.69
2023-04-15T01:29:33.652Z,66.62
2023-04-15T01:32:04.589Z,66.59
2023-04-15T01:34:35.841Z,66.65
2023-04-15T01:37:06.990Z,66.45
2023-04-15T01:39:37.402Z,66.56
2023-04-15T01:42:07.975Z,66.54
2023-04-15T01:44:38.463Z,66.55
2023-04-15T01:47:08.924Z,66.54
2023-04-15T01:49:39.528Z,66.35
2023-04-15T01:52:10.478Z,66.27
2023-04-15T01:54:41.103Z,66.26
2023-04-15T01:57:11.832Z,66.33
2023-04-15T01:59:42.329Z,66.28
2023-04-15T02:02:12.888Z,66.27
2023-04-15T02:04:43.475Z,66.27
2023-04-15T02:07:14.378Z,66.25
2023-04-15T02:09:46.225Z,66.27
2023-04-15T02:12:17.275Z,66.16
2023-04-15T02:14:48.596Z,66.20
2023-04-15T02:17:19.642Z,66.21
2023-04-15T02:19:50.498Z,66.21
2023-04-15T02:22:20.990Z,66.17
2023-04-15T02:24:51.493Z,66.31
2023-04-15T02:27:22.703Z,66.17
2023-04-15T02:29:54.151Z,66.08
2023-04-15T02:32:24.692Z,66.20
2023-04-15T02:34:57.462Z,66.25
2023-04-15T02:37:28.915Z,66.13
2023-04-15T02:39:59.859Z,66.13
2023-04-15T02:42:32.136Z,66.09
2023-04-15T02:45:03.843Z,66.19
2023-04-15T02:47:36.748Z,66.20
2023-04-15T02:50:12.890Z,65.98
2023-04-15T02:52:44.824Z,66.02
2023-04-15T02:55:15.387Z,65.99
2023-04-15T02:57:45.912Z,65.97
2023-04-15T03:00:17.515Z,65.85
2023-04-15T03:02:52.508Z,65.90
2023-04-15T03:05:24.751Z,65.89
2023-04-15T03:07:53.694Z,65.76
2023-04-15T03:10:24.824Z,65.71
2023-04-15T03:12:55.730Z,65.50
2023-04-15T03:15:27.326Z,65.25
2023-04-15T03:17:58.134Z,64.98
2023-04-15T03:20:28.699Z,64.72
2023-04-15T03:22:59.216Z,64.69
2023-04-15T03:25:29.755Z,64.62
2023-04-15T03:28:01.115Z,64.39
2023-04-15T03:30:31.666Z,64.34
2023-04-15T03:33:02.190Z,64.11
2023-04-15T03:35:33.095Z,63.81
2023-04-15T03:38:03.549Z,63.62
2023-04-15T03:40:34.272Z,63.34
2023-04-15T03:43:04.751Z,63.29
2023-04-15T03:45:35.846Z,62.99
2023-04-15T03:48:17.072Z,62.78
2023-04-15T03:50:48.556Z,62.64
2023-04-15T03:53:18.985Z,62.42
2023-04-15T03:55:49.447Z,62.46
2023-04-15T03:58:19.912Z,62.30
2023-04-15T04:00:51.070Z,62.12
2023-04-15T04:03:22.006Z,61.89
2023-04-15T04:05:52.730Z,61.73
2023-04-15T04:08:23.137Z,61.64
2023-04-15T04:10:53.623Z,61.39
2023-04-15T04:13:24.070Z,61.15
2023-04-15T04:15:54.573Z,60.97
2023-04-15T04:18:25.503Z,60.64
2023-04-15T04:20:56.251Z,60.46
2023-04-15T04:23:26.749Z,60.17
2023-04-15T04:25:57.171Z,59.99
2023-04-15T04:28:27.663Z,59.76
2023-04-15T04:30:58.532Z,59.65
2023-04-15T04:33:28.983Z,59.47
2023-04-15T04:35:59.395Z,59.36
2023-04-15T04:38:29.898Z,59.47
2023-04-15T04:41:00.508Z,59.49
2023-04-15T04:43:31.055Z,59.22
2023-04-15T04:46:01.526Z,59.02
2023-04-15T04:48:32.170Z,58.91
2023-04-15T04:51:03.134Z,58.43
2023-04-15T04:53:33.820Z,57.79
2023-04-15T04:56:04.378Z,57.49
2023-04-15T04:58:34.889Z,57.65
2023-04-15T05:01:05.823Z,57.43
2023-04-15T05:03:36.833Z,57.21
2023-04-15T05:06:08.972Z,56.99
2023-04-15T05:08:39.920Z,56.55
2023-04-15T05:11:11.216Z,56.26
2023-04-15T05:13:41.657Z,56.20
2023-04-15T05:16:12.505Z,56.18
2023-04-15T05:18:43.137Z,56.14
2023-04-15T05:21:13.989Z,56.08
2023-04-15T05:23:44.475Z,55.89
2023-04-15T05:26:14.951Z,55.82
2023-04-15T05:28:45.448Z,56.29
2023-04-15T05:31:16.215Z,56.24
2023-04-15T05:33:46.853Z,56.00
2023-04-15T05:36:17.588Z,56.10
2023-04-15T05:38:48.174Z,56.21
2023-04-15T05:41:19.900Z,56.06
2023-04-15T05:43:50.640Z,56.06
2023-04-15T05:46:21.319Z,56.35
2023-04-15T05:48:52.208Z,56.38
2023-04-15T05:51:23.797Z,56.29
2023-04-15T05:53:54.240Z,56.35
2023-04-15T05:56:26.805Z,55.56
2023-04-15T05:58:57.268Z,55.19
2023-04-15T06:01:27.729Z,55.10
2023-04-15T06:03:58.623Z,55.03
2023-04-15T06:06:29.401Z,54.91
2023-04-15T06:08:59.895Z,54.72
2023-04-15T06:11:30.946Z,54.37
2023-04-15T06:14:01.498Z,54.34
2023-04-15T06:16:32.330Z,54.35
2023-04-15T06:19:03.108Z,54.50
2023-04-15T06:21:34.092Z,54.03
2023-04-15T06:24:04.856Z,54.40
2023-04-15T06:26:35.665Z,54.12
2023-04-15T06:29:06.299Z,53.85
2023-04-15T06:31:36.848Z,53.79
2023-04-15T06:34:07.460Z,53.91
2023-04-15T06:36:37.909Z,53.88
2023-04-15T06:39:08.922Z,53.77
2023-04-15T06:41:39.553Z,53.73
2023-04-15T06:44:10.089Z,53.77
2023-04-15T06:46:40.605Z,53.81
2023-04-15T06:49:11.574Z,53.53
2023-04-15T06:51:43.516Z,53.73
2023-04-15T06:54:13.970Z,53.64
2023-04-15T06:56:44.406Z,53.53
2023-04-15T06:59:15.522Z,53.20
2023-04-15T07:01:46.643Z,53.28
2023-04-15T07:04:17.239Z,53.39
2023-04-15T07:06:47.695Z,53.01
2023-04-15T07:09:18.200Z,52.90
2023-04-15T07:11:49.086Z,52.60
2023-04-15T07:14:19.831Z,52.52
2023-04-15T07:16:50.911Z,52.56
2023-04-15T07:19:21.906Z,52.77
2023-04-15T07:21:52.559Z,52.83
2023-04-15T07:24:26.749Z,52.88
2023-04-15T07:27:00.839Z,52.87
2023-04-15T07:29:32.223Z,52.92
2023-04-15T07:32:02.702Z,52.95
2023-04-15T07:34:33.227Z,52.51
2023-04-15T07:37:03.718Z,52.33
2023-04-15T07:39:34.220Z,52.22
2023-04-15T07:42:04.961Z,52.00
2023-04-15T07:44:35.746Z,51.87
2023-04-15T07:47:06.851Z,51.95
2023-04-15T07:49:37.573Z,51.74
2023-04-15T07:52:08.569Z,51.82
2023-04-15T07:54:39.977Z,51.80
2023-04-15T07:57:10.715Z,51.57
2023-04-15T07:59:41.853Z,51.40
2023-04-15T08:02:13.652Z,51.48
2023-04-15T08:04:44.375Z,51.67
2023-04-15T08:07:15.079Z,51.45
2023-04-15T08:09:46.349Z,51.33
2023-04-15T08:12:17.161Z,51.63
2023-04-15T08:14:47.679Z,51.31
2023-04-15T08:17:18.207Z,51.52
2023-04-15T08:19:49.338Z,51.26
2023-04-15T08:22:21.197Z,51.32
2023-04-15T08:24:52.986Z,51.16
2023-04-15T08:27:23.535Z,51.32
2023-04-15T08:29:54.145Z,51.00
2023-04-15T08:32:26.313Z,51.22
2023-04-15T08:34:56.946Z,51.61
2023-04-15T08:37:27.854Z,51.69
2023-04-15T08:39:58.378Z,51.61
2023-04-15T08:42:32.711Z,51.46
2023-04-15T08:45:05.312Z,51.51
2023-04-15T08:47:37.560Z,51.70
2023-04-15T08:50:11.920Z,51.40
2023-04-15T08:52:42.535Z,51.42
2023-04-15T08:55:15.418Z,51.30
2023-04-15T08:57:45.946Z,51.25
2023-04-15T09:00:18.216Z,51.26
2023-04-15T09:02:49.043Z,51.40
2023-04-15T09:05:21.658Z,51.43
2023-04-15T09:07:53.047Z,51.56
2023-04-15T09:10:23.923Z,51.50
2023-04-15T09:12:54.472Z,50.86
2023-04-15T09:15:29.560Z,50.70
2023-04-15T09:18:00.092Z,50.78
2023-04-15T09:20:31.214Z,50.38
2023-04-15T09:23:02.322Z,50.23
2023-04-15T09:25:34.975Z,50.31
2023-04-15T09:28:06.316Z,50.70
2023-04-15T09:30:37.440Z,51.03
2023-04-15T09:33:11.033Z,50.63
2023-04-15T09:35:41.619Z,50.43
2023-04-15T09:38:12.894Z,50.47
2023-04-15T09:40:44.037Z,50.48
2023-04-15T09:43:14.498Z,50.63
2023-04-15T09:45:51.013Z,50.17
2023-04-15T09:48:23.624Z,50.10
2023-04-15T09:50:54.963Z,49.86
2023-04-15T09:53:26.596Z,49.73
2023-04-15T09:55:59.143Z,49.88
2023-04-15T09:58:30.944Z,49.80
2023-04-15T10:01:04.053Z,49.83
2023-04-15T10:03:37.584Z,50.08
2023-04-15T10:06:09.414Z,50.24
2023-04-15T10:08:41.751Z,50.05
2023-04-15T10:11:14.122Z,49.57
2023-04-15T10:13:44.858Z,48.87
2023-04-15T10:16:20.823Z,48.74
2023-04-15T10:18:59.126Z,48.69
2023-04-15T10:21:32.230Z,48.61
2023-04-15T10:24:04.925Z,48.47
2023-04-15T10:26:35.862Z,48.19
2023-04-15T10:29:06.823Z,48.38
2023-04-15T10:31:38.486Z,48.55
2023-04-15T10:34:09.961Z,48.57
2023-04-15T10:36:40.620Z,48.04
2023-04-15T10:39:42.883Z,47.95
2023-04-15T10:42:15.372Z,48.11
2023-04-15T10:44:49.455Z,47.80
2023-04-15T10:47:22.107Z,47.80
2023-04-15T10:49:58.051Z,47.79
2023-04-15T10:52:30.386Z,47.46
2023-04-15T10:55:16.996Z,47.56
2023-04-15T10:57:47.897Z,47.71
2023-04-15T11:00:19.919Z,47.77
2023-04-15T11:02:50.153Z,47.87
2023-04-15T11:05:21.873Z,47.44
2023-04-15T11:07:54.990Z,47.54
2023-04-15T11:10:57.735Z,47.33
2023-04-15T11:13:31.379Z,47.24
2023-04-15T11:16:03.844Z,47.20
2023-04-15T11:18:35.742Z,47.25
2023-04-15T11:21:09.458Z,47.25
2023-04-15T11:23:44.396Z,46.97
2023-04-15T11:26:15.671Z,46.78
2023-04-15T11:28:47.613Z,47.22
2023-04-15T11:31:20.132Z,47.26
2023-04-15T11:33:59.518Z,47.11
2023-04-15T11:36:31.824Z,46.96
2023-04-15T11:39:02.961Z,47.20
2023-04-15T11:41:33.473Z,47.54
2023-04-15T11:44:04.222Z,47.80
2023-04-15T11:46:34.969Z,47.77
2023-04-15T11:49:06.012Z,48.20
2023-04-15T11:51:37.204Z,47.80
2023-04-15T11:54:07.908Z,47.23
2023-04-15T11:56:39.138Z,47.00
2023-04-15T11:59:09.664Z,46.76
2023-04-15T12:01:44.092Z,47.02
2023-04-15T12:04:24.249Z,47.08
2023-04-15T12:06:55.973Z,47.33
2023-04-15T12:09:27.181Z,47.00
2023-04-15T12:12:00.397Z,46.49
2023-04-15T12:14:32.202Z,46.33
2023-04-15T12:17:04.945Z,46.23
2023-04-15T12:19:38.806Z,45.76
2023-04-15T12:22:11.979Z,45.84
2023-04-15T12:24:44.031Z,45.68
2023-04-15T12:27:17.013Z,45.34
2023-04-15T12:29:47.728Z,45.16
2023-04-15T12:32:21.021Z,44.98
2023-04-15T12:34:55.309Z,45.17
2023-04-15T12:37:26.213Z,44.73
2023-04-15T12:39:56.754Z,44.39
2023-04-15T12:42:27.586Z,44.36
2023-04-15T12:45:58.932Z,44.21
2023-04-15T12:48:29.467Z,44.03
2023-04-15T12:50:59.996Z,44.19
2023-04-15T12:53:31.345Z,44.07
2023-04-15T12:56:02.418Z,43.92
2023-04-15T12:58:33.429Z,44.00
2023-04-15T13:01:04.062Z,44.05
2023-04-15T13:03:34.697Z,44.03
2023-04-15T13:06:06.148Z,44.08
2023-04-15T13:08:38.563Z,43.93
2023-04-15T13:11:11.749Z,43.54
2023-04-15T13:13:42.220Z,44.29
2023-04-15T13:16:12.704Z,44.58
2023-04-15T13:18:43.404Z,44.56
2023-04-15T13:21:14.448Z,44.66
2023-04-15T13:23:45.283Z,44.18
2023-04-15T13:26:16.715Z,44.26
2023-04-15T13:28:47.624Z,44.62
2023-04-15T13:31:18.109Z,44.27
2023-04-15T13:33:48.735Z,43.95
2023-04-15T13:36:19.367Z,44.01
2023-04-15T13:38:51.234Z,43.78
2023-04-15T13:41:22.186Z,43.87
2023-04-15T13:43:52.677Z,44.07
2023-04-15T13:46:23.238Z,43.84
2023-04-15T13:48:54.474Z,43.43
2023-04-15T13:51:24.971Z,43.24
2023-04-15T13:53:55.701Z,42.96
2023-04-15T13:56:26.288Z,42.91
2023-04-15T13:58:59.032Z,42.32
2023-04-15T14:01:29.669Z,42.54
2023-04-15T14:04:00.299Z,43.02
2023-04-15T14:06:31.851Z,42.97
2023-04-15T14:09:02.568Z,43.24
2023-04-15T14:11:35.468Z,43.03
2023-04-15T14:14:06.559Z,43.15
2023-04-15T14:16:37.397Z,43.15
2023-04-15T14:19:08.054Z,43.82
2023-04-15T14:21:38.774Z,43.65
2023-04-15T14:24:09.811Z,43.56
2023-04-15T14:26:41.763Z,43.73
2023-04-15T14:29:11.347Z,43.79
2023-04-15T14:31:42.279Z,43.65
2023-04-15T14:34:32.778Z,43.46
2023-04-15T14:37:03.846Z,43.19
2023-04-15T14:39:34.782Z,43.20
2023-04-15T14:42:05.490Z,43.43
2023-04-15T14:44:36.154Z,43.71
2023-04-15T14:47:06.745Z,43.75
2023-04-15T14:49:37.231Z,43.34
2023-04-15T14:52:07.754Z,43.21
2023-04-15T14:54:38.236Z,42.63
2023-04-15T14:57:09.119Z,42.59
2023-04-15T14:59:39.621Z,42.44
2023-04-15T15:02:12.894Z,42.59
2023-04-15T15:04:45.901Z,42.69
2023-04-15T15:07:16.487Z,42.32
2023-04-15T15:09:46.945Z,42.12
2023-04-15T15:12:17.441Z,41.74
2023-04-15T15:14:47.941Z,41.69
2023-04-15T15:17:18.464Z,41.78
2023-04-15T15:19:49.083Z,41.95
2023-04-15T15:22:21.347Z,41.89
2023-04-15T15:24:52.596Z,41.78
2023-04-15T15:27:23.104Z,41.89
2023-04-15T15:29:53.536Z,41.96
2023-04-15T15:32:24.070Z,41.72
2023-04-15T15:34:54.680Z,41.67
2023-04-15T15:37:25.447Z,41.79
2023-04-15T15:39:56.292Z,41.82
2023-04-15T15:42:26.723Z,41.67
2023-04-15T15:44:57.448Z,41.57
2023-04-15T15:47:28.147Z,41.99
2023-04-15T15:49:58.897Z,42.11
2023-04-15T15:52:29.652Z,42.35
2023-04-15T15:55:00.492Z,42.16
2023-04-15T15:57:30.982Z,41.83
2023-04-15T16:00:11.393Z,41.83
2023-04-15T16:05:19.033Z,41.57
2023-04-15T16:07:49.830Z,41.36
2023-04-15T16:10:20.287Z,41.49
2023-04-15T16:12:51.042Z,41.45
2023-04-15T16:15:21.650Z,41.24
2023-04-15T16:17:52.297Z,41.40
2023-04-15T16:20:22.966Z,41.34
2023-04-15T16:22:53.624Z,41.17
2023-04-15T16:25:24.170Z,41.45
2023-04-15T16:28:05.382Z,41.40
2023-04-15T16:30:40.493Z,41.22
2023-04-15T16:33:11.136Z,41.17
2023-04-15T16:35:41.639Z,41.19
2023-04-15T16:38:12.133Z,41.19
2023-04-15T16:40:42.613Z,41.38
2023-04-15T16:43:13.095Z,41.58
2023-04-15T16:45:44.527Z,41.57
2023-04-15T16:48:15.202Z,41.31
2023-04-15T16:50:46.140Z,41.29
2023-04-15T16:53:17.388Z,41.35
2023-04-15T16:55:47.926Z,41.23
2023-04-15T16:58:18.410Z,41.27
2023-04-15T17:00:48.980Z,41.07
2023-04-15T17:03:19.672Z,41.02
2023-04-15T17:05:50.443Z,40.99
2023-04-15T17:08:21.078Z,41.03
2023-04-15T17:10:51.865Z,41.18
2023-04-15T17:13:22.406Z,41.06
2023-04-15T17:15:55.116Z,41.21
2023-04-15T17:18:26.471Z,41.15
2023-04-15T17:20:57.818Z,41.02
2023-04-15T17:23:28.698Z,41.18
2023-04-15T17:25:59.258Z,41.23
2023-04-15T17:28:29.767Z,41.44
2023-04-15T17:31:00.280Z,41.46
2023-04-15T17:33:55.905Z,41.64
2023-04-15T17:36:21.254Z,41.63
2023-04-15T17:38:51.747Z,41.73
2023-04-15T17:41:22.341Z,41.89
2023-04-15T17:43:53.074Z,41.73
2023-04-15T17:46:23.634Z,41.90
2023-04-15T17:48:54.124Z,42.01
2023-04-15T17:51:24.735Z,42.19
2023-04-15T17:54:10.351Z,42.31
2023-04-15T17:56:40.869Z,42.36
2023-04-15T17:59:11.797Z,42.43
2023-04-15T18:01:42.468Z,42.42
2023-04-15T18:04:13.336Z,42.54
2023-04-15T18:06:44.088Z,42.73
2023-04-15T18:09:14.573Z,42.67
2023-04-15T18:11:45.308Z,42.71
2023-04-15T18:14:27.120Z,42.85
2023-04-15T18:17:04.852Z,42.73
2023-04-15T18:19:35.625Z,43.07
2023-04-15T18:22:06.342Z,43.46
2023-04-15T18:24:36.799Z,44.17
2023-04-15T18:27:07.521Z,45.02
2023-04-15T18:29:38.517Z,45.65
2023-04-15T18:32:08.972Z,46.25
2023-04-15T18:34:39.665Z,46.89
2023-04-15T18:37:10.246Z,47.60
2023-04-15T18:39:40.745Z,47.81
2023-04-15T18:42:11.311Z,48.02
2023-04-15T18:44:41.794Z,48.22
2023-04-15T18:47:12.284Z,48.58
2023-04-15T18:49:42.776Z,48.69
2023-04-15T18:52:13.353Z,48.76
2023-04-15T18:54:43.780Z,48.99
2023-04-15T18:57:14.346Z,49.16
2023-04-15T18:59:50.944Z,49.47
2023-04-15T19:02:21.717Z,49.48
2023-04-15T19:04:52.558Z,49.64
2023-04-15T19:07:23.400Z,49.85
2023-04-15T19:09:54.460Z,50.08
2023-04-15T19:12:25.090Z,49.88
2023-04-15T19:14:55.670Z,50.09
2023-04-15T19:17:26.664Z,50.08
2023-04-15T19:19:57.937Z,50.05
2023-04-15T19:22:30.906Z,50.41
2023-04-15T19:25:01.442Z,50.34
2023-04-15T19:27:41.261Z,50.47
2023-04-15T19:30:12.389Z,50.50
2023-04-15T19:32:43.081Z,50.54
2023-04-15T19:35:13.948Z,50.71
2023-04-15T19:37:44.724Z,50.75
2023-04-15T19:40:15.701Z,50.89
2023-04-15T19:42:46.367Z,50.51
2023-04-15T19:45:17.269Z,50.58
2023-04-15T19:47:48.428Z,51.03
2023-04-15T19:50:24.636Z,50.67
2023-04-15T19:52:55.336Z,50.90
2023-04-15T19:55:25.874Z,51.05
2023-04-15T19:57:57.136Z,51.11
2023-04-15T20:00:27.757Z,51.25
2023-04-15T20:03:21.505Z,51.23
2023-04-15T20:05:52.898Z,51.26
2023-04-15T20:08:23.654Z,51.34
2023-04-15T20:10:54.760Z,51.43
2023-04-15T20:13:25.355Z,51.45
2023-04-15T20:15:55.902Z,51.78
2023-04-15T20:18:26.606Z,51.75
2023-04-15T20:20:57.224Z,51.86
2023-04-15T20:23:28.220Z,51.96
2023-04-15T20:25:58.775Z,51.81
2023-04-15T20:32:56.141Z,52.04
2023-04-15T20:35:31.028Z,52.20
2023-04-15T20:38:02.710Z,51.83
2023-04-15T20:40:33.857Z,52.00
2023-04-15T20:43:04.549Z,51.81
2023-04-15T20:45:35.085Z,52.06
2023-04-15T20:48:06.424Z,51.99
2023-04-15T20:50:37.059Z,51.86
2023-04-15T20:53:07.693Z,51.92
2023-04-15T20:55:44.705Z,51.93
2023-04-15T20:58:15.301Z,51.68
2023-04-15T21:00:46.565Z,51.83
2023-04-15T21:03:17.375Z,51.93
2023-04-15T21:05:48.106Z,52.13
2023-04-15T21:08:18.672Z,52.01
2023-04-15T21:10:49.160Z,51.82
2023-04-15T21:13:19.984Z,52.10
2023-04-15T21:15:54.116Z,52.14
2023-04-15T21:18:25.050Z,51.87
2023-04-15T21:21:01.882Z,51.93
2023-04-15T21:23:35.978Z,51.90
2023-04-15T21:26:06.584Z,52.14
2023-04-15T21:28:37.203Z,52.23
2023-04-15T21:31:07.821Z,52.16
2023-04-15T21:33:38.342Z,52.19
2023-04-15T21:36:09.287Z,52.23
2023-04-15T21:38:39.962Z,52.27
2023-04-15T21:41:10.576Z,52.18
2023-04-15T21:43:44.831Z,52.07
2023-04-15T21:46:23.723Z,52.18
2023-04-15T21:48:56.702Z,52.43
2023-04-15T21:51:27.777Z,52.60
2023-04-15T21:53:58.283Z,52.34
2023-04-15T21:56:28.925Z,52.65
2023-04-15T21:59:03.683Z,52.80
2023-04-15T22:01:34.448Z,52.80
2023-04-15T22:04:06.106Z,52.88
2023-04-15T22:06:36.693Z,53.23
2023-04-15T22:09:07.268Z,53.16
2023-04-15T22:11:37.736Z,53.03
2023-04-15T22:14:08.181Z,53.32
2023-04-15T22:16:38.773Z,53.33
2023-04-15T22:19:09.833Z,53.43
2023-04-15T22:21:40.379Z,53.54
2023-04-15T22:24:33.356Z,53.72
2023-04-15T22:27:00.174Z,53.68
2023-04-15T22:29:31.076Z,53.72
2023-04-15T22:32:01.928Z,53.78
2023-04-15T22:34:32.428Z,53.87
2023-04-15T22:37:02.918Z,53.92
2023-04-15T22:39:33.378Z,53.94
2023-04-15T22:42:03.963Z,54.04
2023-04-15T22:44:34.369Z,54.25
2023-04-15T22:47:04.856Z,54.29
2023-04-15T22:49:36.328Z,54.10
2023-04-15T22:52:07.971Z,54.35
2023-04-15T22:54:39.588Z,54.28
2023-04-15T22:57:10.325Z,54.43
2023-04-15T22:59:40.785Z,54.51
2023-04-15T23:02:11.605Z,54.54
2023-04-15T23:04:42.138Z,54.63
2023-04-15T23:07:12.936Z,54.62
2023-04-15T23:09:43.405Z,54.69
2023-04-15T23:12:14.446Z,54.62
2023-04-15T23:14:44.930Z,54.51
2023-04-15T23:17:15.635Z,54.60
2023-04-15T23:19:46.352Z,54.55
2023-04-15T23:22:16.953Z,54.50
2023-04-15T23:24:47.476Z,54.73
2023-04-15T23:27:19.093Z,54.63
2023-04-15T23:29:49.584Z,54.65
2023-04-15T23:32:20.036Z,54.74
2023-04-15T23:34:52.308Z,54.73
2023-04-15T23:37:22.875Z,54.73
2023-04-15T23:39:53.421Z,55.00
2023-04-15T23:42:24.287Z,54.97
2023-04-15T23:44:54.797Z,55.10
2023-04-15T23:47:26.080Z,54.86
2023-04-15T23:49:56.592Z,54.98
2023-04-15T23:52:27.221Z,55.23
2023-04-15T23:54:57.699Z,55.33
2023-04-15T23:57:28.295Z,55.20
2023-04-15T23:59:58.846Z,55.30
